createdAt,value
2023-02-21T00:00:26.373Z,85.80
2023-02-21T00:03:08.967Z,82.83
2023-02-21T00:05:51.732Z,89.33
2023-02-21T00:08:37.625Z,84.90
2023-02-21T00:11:21.733Z,81.87
2023-02-21T00:14:05.002Z,83.97
2023-02-21T00:16:47.202Z,73.43
2023-02-21T00:19:29.354Z,77.47
2023-02-21T00:22:11.976Z,87.47
2023-02-21T00:24:57.083Z,81.13
2023-02-21T00:27:40.487Z,78.30
2023-02-21T00:30:24.581Z,84.30
2023-02-21T00:33:07.394Z,79.00
2023-02-21T00:35:50.078Z,75.47
2023-02-21T00:38:33.221Z,81.90
2023-02-21T00:41:19.354Z,79.40
2023-02-21T00:44:02.027Z,79.83
2023-02-21T00:46:44.884Z,72.97
2023-02-21T00:49:27.476Z,83.77
2023-02-21T00:52:10.562Z,74.03
2023-02-21T00:54:53.385Z,73.83
2023-02-21T00:57:40.120Z,73.73
2023-02-21T01:00:29.753Z,81.63
2023-02-21T01:03:12.760Z,81.27
2023-02-21T01:05:55.584Z,86.47
2023-02-21T01:08:38.080Z,79.70
2023-02-21T01:11:20.975Z,79.80
2023-02-21T01:14:07.845Z,75.33
2023-02-21T01:16:50.653Z,81.07
2023-02-21T01:19:33.510Z,76.43
2023-02-21T01:22:16.982Z,77.83
2023-02-21T01:24:59.639Z,78.40
2023-02-21T01:27:42.749Z,75.53
2023-02-21T01:30:28.900Z,74.93
2023-02-21T01:33:11.856Z,70.13
2023-02-21T01:35:54.328Z,81.33
2023-02-21T01:38:37.691Z,76.20
2023-02-21T01:41:20.696Z,70.07
2023-02-21T01:44:14.467Z,71.33
2023-02-21T01:47:01.465Z,73.00
2023-02-21T01:49:45.356Z,67.17
2023-02-21T01:52:28.323Z,74.30
2023-02-21T01:55:12.634Z,72.03
2023-02-21T01:57:56.295Z,73.87
2023-02-21T02:00:40.266Z,74.90
2023-02-21T02:03:28.228Z,67.67
2023-02-21T02:06:13.695Z,80.80
2023-02-21T02:08:57.240Z,75.73
2023-02-21T02:12:00.245Z,73.40
2023-02-21T02:14:54.534Z,74.10
2023-02-21T02:17:38.655Z,74.27
2023-02-21T02:20:51.377Z,67.47
2023-02-21T02:23:52.457Z,70.43
2023-02-21T02:26:53.876Z,78.20
2023-02-21T02:29:47.074Z,79.20
2023-02-21T02:32:40.588Z,77.63
2023-02-21T02:35:17.276Z,74.77
2023-02-21T02:37:55.158Z,78.13
2023-02-21T02:40:35.737Z,74.57
2023-02-21T02:43:13.761Z,79.73
2023-02-21T02:45:49.216Z,79.00
2023-02-21T02:48:25.974Z,80.80
2023-02-21T02:51:04.052Z,77.77
2023-02-21T02:53:36.296Z,78.60
2023-02-21T02:56:10.196Z,76.00
2023-02-21T02:58:45.087Z,74.37
2023-02-21T03:01:43.124Z,81.23
2023-02-21T03:04:35.619Z,77.97
2023-02-21T03:07:18.773Z,75.17
2023-02-21T03:09:57.810Z,74.30
2023-02-21T03:12:37.013Z,78.97
2023-02-21T03:15:15.258Z,78.10
2023-02-21T03:17:53.653Z,84.20
2023-02-21T03:20:25.324Z,74.10
2023-02-21T03:23:00.269Z,83.93
2023-02-21T03:25:33.256Z,82.07
2023-02-21T03:28:06.556Z,89.37
2023-02-21T03:30:45.364Z,81.87
2023-02-21T03:33:15.448Z,80.07
2023-02-21T03:35:47.552Z,86.50
2023-02-21T03:38:20.672Z,85.03
2023-02-21T03:40:52.560Z,93.53
2023-02-21T03:43:23.288Z,88.00
2023-02-21T03:46:00.090Z,86.97
2023-02-21T03:48:32.873Z,86.67
2023-02-21T03:51:26.003Z,86.70
2023-02-21T03:54:00.341Z,81.67
2023-02-21T03:56:42.277Z,85.57
2023-02-21T03:59:25.748Z,88.90
2023-02-21T04:01:56.601Z,90.03
2023-02-21T04:04:28.072Z,90.97
2023-02-21T04:07:09.438Z,83.37
2023-02-21T04:09:43.436Z,88.20
2023-02-21T04:12:16.767Z,86.43
2023-02-21T04:14:47.343Z,87.33
2023-02-21T04:17:18.610Z,85.60
2023-02-21T04:19:49.331Z,89.30
2023-02-21T04:22:20.137Z,86.83
2023-02-21T04:24:53.091Z,83.43
2023-02-21T04:27:27.376Z,89.77
2023-02-21T04:29:59.976Z,89.40
2023-02-21T04:32:31.867Z,90.53
2023-02-21T04:35:05.538Z,91.90
2023-02-21T04:37:37.354Z,89.90
2023-02-21T04:40:11.509Z,97.07
2023-02-21T04:42:41.849Z,93.63
2023-02-21T04:45:12.810Z,96.83
2023-02-21T04:47:43.344Z,96.20
2023-02-21T04:50:13.575Z,88.20
2023-02-21T04:52:43.895Z,97.37
2023-02-21T04:55:17.986Z,90.73
2023-02-21T04:57:48.012Z,102.43
2023-02-21T05:00:20.146Z,105.20
2023-02-21T05:02:50.268Z,97.40
2023-02-21T05:05:20.609Z,95.33
2023-02-21T05:07:50.593Z,100.83
2023-02-21T05:10:25.434Z,101.77
2023-02-21T05:12:57.040Z,104.90
2023-02-21T05:15:27.277Z,95.60
2023-02-21T05:17:57.254Z,105.83
2023-02-21T05:20:27.140Z,103.33
2023-02-21T05:23:02.065Z,95.20
2023-02-21T05:25:37.986Z,100.80
2023-02-21T05:28:08.203Z,112.13
2023-02-21T05:30:38.357Z,100.47
2023-02-21T05:33:08.642Z,97.13
2023-02-21T05:35:38.771Z,101.50
2023-02-21T05:38:08.969Z,100.13
2023-02-21T05:40:41.834Z,105.30
2023-02-21T05:43:11.949Z,105.70
2023-02-21T05:45:41.904Z,107.67
2023-02-21T05:48:12.061Z,116.33
2023-02-21T05:50:42.470Z,103.53
2023-02-21T05:53:12.435Z,110.10
2023-02-21T05:55:45.040Z,109.00
2023-02-21T05:58:14.965Z,108.27
2023-02-21T06:00:44.725Z,103.13
2023-02-21T06:03:14.377Z,103.83
2023-02-21T06:05:44.389Z,111.20
2023-02-21T06:08:14.410Z,112.33
2023-02-21T06:10:48.603Z,104.10
2023-02-21T06:13:18.403Z,99.60
2023-02-21T06:15:48.146Z,106.87
2023-02-21T06:18:19.043Z,97.67
2023-02-21T06:20:49.005Z,103.03
2023-02-21T06:23:19.053Z,109.53
2023-02-21T06:25:51.632Z,106.97
2023-02-21T06:28:21.325Z,116.53
2023-02-21T06:30:51.019Z,104.40
2023-02-21T06:33:20.663Z,106.23
2023-02-21T06:35:50.276Z,101.10
2023-02-21T06:38:19.976Z,100.40
2023-02-21T06:40:52.436Z,104.17
2023-02-21T06:43:28.704Z,108.80
2023-02-21T06:46:00.581Z,104.37
2023-02-21T06:48:31.417Z,104.83
2023-02-21T06:51:03.171Z,102.70
2023-02-21T06:53:34.795Z,102.53
2023-02-21T06:56:09.977Z,92.30
2023-02-21T06:58:51.937Z,93.90
2023-02-21T07:01:24.338Z,101.80
2023-02-21T07:03:59.046Z,97.07
2023-02-21T07:06:34.082Z,106.27
2023-02-21T07:17:20.661Z,103.40
2023-02-21T07:37:54.414Z,94.67
2023-02-21T07:40:24.410Z,105.53
2023-02-21T07:42:54.494Z,110.53
2023-02-21T07:45:25.630Z,96.50
2023-02-21T07:47:55.517Z,103.07
2023-02-21T07:50:25.261Z,116.33
2023-02-21T07:52:59.799Z,97.93
2023-02-21T07:55:29.477Z,98.17
2023-02-21T07:57:59.148Z,91.47
2023-02-21T08:00:29.240Z,98.00
2023-02-21T08:02:59.000Z,88.50
2023-02-21T08:05:28.986Z,83.30
2023-02-21T08:08:01.243Z,92.40
2023-02-21T08:10:31.067Z,88.20
2023-02-21T08:13:00.724Z,91.17
2023-02-21T08:15:30.503Z,91.67
2023-02-21T08:18:00.176Z,86.27
2023-02-21T08:20:29.809Z,88.83
2023-02-21T08:23:02.049Z,94.70
2023-02-21T08:25:31.708Z,90.57
2023-02-21T08:28:01.317Z,92.47
2023-02-21T08:30:31.017Z,96.60
2023-02-21T08:33:00.641Z,95.17
2023-02-21T08:35:31.049Z,86.90
2023-02-21T08:38:05.076Z,102.60
2023-02-21T08:40:35.796Z,93.23
2023-02-21T08:43:05.877Z,92.47
2023-02-21T08:45:35.859Z,103.80
2023-02-21T08:48:08.709Z,94.90
2023-02-21T08:50:38.433Z,110.67
2023-02-21T08:53:10.774Z,106.67
2023-02-21T08:55:40.441Z,100.73
2023-02-21T08:58:10.097Z,90.37
2023-02-21T09:00:39.785Z,106.03
2023-02-21T09:03:09.500Z,98.80
2023-02-21T09:05:39.161Z,105.10
2023-02-21T09:08:21.148Z,98.13
2023-02-21T09:11:05.715Z,107.93
2023-02-21T09:13:42.436Z,96.93
2023-02-21T09:16:16.609Z,98.93
2023-02-21T11:36:43.137Z,34.90
2023-02-21T11:40:01.747Z,32.00
2023-02-21T11:43:08.258Z,31.90
2023-02-21T11:46:03.664Z,32.43
2023-02-21T11:49:49.845Z,36.40
2023-02-21T11:55:31.823Z,33.60
2023-02-21T12:10:58.528Z,39.37
2023-02-21T12:22:21.485Z,44.23
2023-02-21T12:28:46.090Z,42.50
2023-02-21T12:31:31.484Z,44.37
2023-02-21T13:20:50.768Z,54.60
2023-02-21T13:24:31.138Z,57.03
2023-02-21T13:28:19.890Z,50.40
2023-02-21T13:31:06.632Z,54.80
2023-02-21T13:34:07.540Z,50.47
2023-02-21T13:37:50.123Z,46.07
2023-02-21T13:41:18.824Z,54.97
2023-02-21T13:49:03.316Z,48.97
2023-02-21T13:53:05.382Z,54.33
2023-02-21T13:57:01.917Z,52.63
2023-02-21T14:00:24.352Z,52.37
2023-02-21T14:06:00.099Z,48.97
2023-02-21T14:08:27.616Z,55.90
2023-02-21T14:11:38.830Z,51.17
2023-02-21T14:14:49.962Z,50.50
2023-02-21T14:17:32.273Z,50.50
2023-02-21T14:20:09.368Z,44.20
2023-02-21T14:22:42.204Z,48.93
2023-02-21T14:25:21.669Z,53.00
2023-02-21T14:27:53.488Z,48.17
2023-02-21T14:30:32.096Z,49.30
2023-02-21T14:33:20.850Z,52.70
2023-02-21T14:36:01.040Z,181.97
2023-02-21T14:38:39.283Z,53.67
2023-02-21T14:41:27.044Z,48.33
2023-02-21T14:44:09.869Z,51.30
2023-02-21T14:46:55.010Z,50.13
2023-02-21T14:49:43.528Z,55.70
2023-02-21T14:52:53.239Z,50.90
2023-02-21T14:56:03.800Z,42.63
2023-02-21T14:59:07.008Z,43.23
2023-02-21T15:01:57.609Z,39.13
2023-02-21T15:04:37.748Z,40.07
2023-02-21T15:07:19.008Z,37.37
2023-02-21T15:10:07.196Z,38.43
2023-02-21T15:12:44.673Z,41.67
2023-02-21T15:15:20.263Z,39.80
2023-02-21T15:18:01.124Z,39.57
2023-02-21T15:20:33.840Z,36.50
2023-02-21T15:23:08.128Z,35.30
2023-02-21T15:25:38.195Z,36.47
2023-02-21T15:28:23.058Z,36.60
2023-02-21T15:31:05.285Z,41.73
2023-02-21T15:33:37.440Z,45.50
2023-02-21T15:36:09.912Z,46.57
2023-02-21T15:38:44.956Z,48.23
2023-02-21T15:41:23.408Z,48.53
2023-02-21T15:44:00.837Z,40.93
2023-02-21T15:46:34.632Z,44.43
2023-02-21T15:49:07.400Z,38.53
2023-02-21T15:51:40.949Z,48.63
2023-02-21T15:54:12.287Z,44.17
2023-02-21T15:56:42.595Z,52.83
2023-02-21T15:59:21.375Z,49.60
2023-02-21T16:02:19.945Z,43.57
2023-02-21T16:04:51.289Z,48.37
2023-02-21T16:07:24.932Z,49.60
2023-02-21T16:10:03.390Z,53.30
2023-02-21T16:12:38.140Z,53.40
2023-02-21T16:15:23.416Z,52.90
2023-02-21T16:17:56.986Z,60.73
2023-02-21T16:20:31.262Z,59.47
2023-02-21T16:23:26.020Z,60.57
2023-02-21T16:26:01.514Z,62.07
2023-02-21T16:28:31.824Z,68.63
2023-02-21T16:31:06.359Z,69.10
2023-02-21T16:33:37.976Z,62.00
2023-02-21T16:36:10.728Z,71.03
2023-02-21T16:38:40.457Z,63.97
2023-02-21T16:41:16.202Z,64.30
2023-02-21T16:43:46.155Z,71.37
2023-02-21T16:46:28.416Z,70.90
2023-02-21T16:49:00.013Z,72.50
2023-02-21T16:51:34.787Z,64.27
2023-02-21T16:54:05.218Z,60.83
2023-02-21T16:56:35.318Z,58.77
2023-02-21T16:59:05.881Z,59.90
2023-02-21T17:01:39.200Z,59.13
2023-02-21T17:04:09.220Z,61.83
2023-02-21T17:06:38.928Z,64.43
2023-02-21T17:09:08.607Z,60.70
2023-02-21T17:11:38.272Z,67.13
2023-02-21T17:14:07.910Z,57.63
2023-02-21T17:16:40.264Z,53.90
2023-02-21T17:19:12.557Z,53.43
2023-02-21T17:21:42.367Z,52.30
2023-02-21T17:24:14.086Z,54.27
2023-02-21T17:26:44.145Z,54.83
2023-02-21T17:29:14.460Z,48.10
2023-02-21T17:31:46.786Z,45.07
2023-02-21T17:34:16.617Z,51.20
2023-02-21T17:36:46.333Z,49.83
2023-02-21T18:24:13.266Z,42.37
2023-02-21T18:26:42.955Z,52.87
2023-02-21T18:29:12.655Z,55.73
2023-02-21T18:31:47.587Z,45.07
2023-02-21T18:34:21.267Z,45.93
2023-02-21T18:36:56.228Z,41.40
2023-02-21T23:19:45.099Z,62.00
2023-02-21T23:22:17.403Z,60.80
2023-02-21T23:24:47.206Z,59.70
2023-02-21T23:27:16.875Z,52.60
2023-02-21T23:29:47.890Z,56.67
2023-02-21T23:32:17.565Z,59.27
2023-02-21T23:34:50.836Z,62.73
2023-02-21T23:37:23.110Z,52.60
2023-02-21T23:39:52.716Z,55.27
2023-02-21T23:42:23.815Z,53.53
2023-02-21T23:44:54.505Z,58.23
2023-02-21T23:47:24.225Z,61.20
2023-02-21T23:49:58.109Z,59.10
2023-02-21T23:52:30.487Z,57.63
2023-02-21T23:55:00.444Z,55.67
2023-02-21T23:57:31.436Z,61.57
